sensor_id;sensor_type;location;lat;lon;timestamp;temperature;humidity
16980;DHT22;42288;52.182;21.156;2022-11-20T00:00:50;-2.80;92.80
16980;DHT22;42288;52.182;21.156;2022-11-20T00:03:15;-2.80;92.40
16980;DHT22;42288;52.182;21.156;2022-11-20T00:05:41;-3.10;92.40
16980;DHT22;42288;52.182;21.156;2022-11-20T00:08:06;-3.00;92.80
16980;DHT22;42288;52.182;21.156;2022-11-20T00:10:32;-3.10;92.80
16980;DHT22;42288;52.182;21.156;2022-11-20T00:12:58;-3.10;92.80
16980;DHT22;42288;52.182;21.156;2022-11-20T00:15:23;-3.10;93.00
16980;DHT22;42288;52.182;21.156;2022-11-20T00:17:49;-3.00;92.90
16980;DHT22;42288;52.182;21.156;2022-11-20T00:20:15;-3.20;92.60
16980;DHT22;42288;52.182;21.156;2022-11-20T00:22:40;-3.10;93.20
16980;DHT22;42288;52.182;21.156;2022-11-20T00:25:06;-3.00;93.00
16980;DHT22;42288;52.182;21.156;2022-11-20T00:27:32;-2.90;93.00
16980;DHT22;42288;52.182;21.156;2022-11-20T00:29:57;-2.90;92.90
16980;DHT22;42288;52.182;21.156;2022-11-20T00:32:22;-3.00;92.70
16980;DHT22;42288;52.182;21.156;2022-11-20T00:34:48;-3.00;92.90
16980;DHT22;42288;52.182;21.156;2022-11-20T00:37:13;-3.10;93.10
16980;DHT22;42288;52.182;21.156;2022-11-20T00:39:39;-3.00;93.10
16980;DHT22;42288;52.182;21.156;2022-11-20T00:42:04;-3.00;93.10
16980;DHT22;42288;52.182;21.156;2022-11-20T00:44:30;-3.00;93.00
16980;DHT22;42288;52.182;21.156;2022-11-20T00:46:55;-2.80;93.00
16980;DHT22;42288;52.182;21.156;2022-11-20T00:49:21;-2.80;92.80
16980;DHT22;42288;52.182;21.156;2022-11-20T00:51:46;-2.80;92.80
16980;DHT22;42288;52.182;21.156;2022-11-20T00:54:12;-2.60;93.00
16980;DHT22;42288;52.182;21.156;2022-11-20T00:56:37;-2.40;93.00
16980;DHT22;42288;52.182;21.156;2022-11-20T00:59:03;-2.30;92.70
16980;DHT22;42288;52.182;21.156;2022-11-20T01:01:29;-2.20;92.60
16980;DHT22;42288;52.182;21.156;2022-11-20T01:03:57;-2.20;91.90
16980;DHT22;42288;52.182;21.156;2022-11-20T01:06:26;-2.20;92.00
16980;DHT22;42288;52.182;21.156;2022-11-20T01:08:54;-2.20;92.10
16980;DHT22;42288;52.182;21.156;2022-11-20T01:11:23;-2.20;91.90
16980;DHT22;42288;52.182;21.156;2022-11-20T01:13:50;-2.40;91.70
16980;DHT22;42288;52.182;21.156;2022-11-20T01:16:20;-2.50;91.80
16980;DHT22;42288;52.182;21.156;2022-11-20T01:18:49;-2.20;92.30
16980;DHT22;42288;52.182;21.156;2022-11-20T01:21:17;-2.30;91.60
16980;DHT22;42288;52.182;21.156;2022-11-20T01:23:44;-2.30;91.80
16980;DHT22;42288;52.182;21.156;2022-11-20T01:26:12;-2.30;92.00
16980;DHT22;42288;52.182;21.156;2022-11-20T01:28:39;-2.40;91.80
16980;DHT22;42288;52.182;21.156;2022-11-20T01:31:23;-2.20;91.90
16980;DHT22;42288;52.182;21.156;2022-11-20T01:33:52;-2.40;91.70
16980;DHT22;42288;52.182;21.156;2022-11-20T01:36:19;-2.40;91.80
16980;DHT22;42288;52.182;21.156;2022-11-20T01:38:46;-2.30;92.40
16980;DHT22;42288;52.182;21.156;2022-11-20T01:41:13;-2.20;92.20
16980;DHT22;42288;52.182;21.156;2022-11-20T01:44:00;-2.40;91.70
16980;DHT22;42288;52.182;21.156;2022-11-20T01:46:26;-2.30;92.30
16980;DHT22;42288;52.182;21.156;2022-11-20T01:49:11;-2.30;91.80
16980;DHT22;42288;52.182;21.156;2022-11-20T01:52:00;-2.40;91.90
16980;DHT22;42288;52.182;21.156;2022-11-20T01:54:45;-2.10;92.40
16980;DHT22;42288;52.182;21.156;2022-11-20T01:57:13;-1.90;92.10
16980;DHT22;42288;52.182;21.156;2022-11-20T01:59:44;-1.80;91.70
16980;DHT22;42288;52.182;21.156;2022-11-20T02:02:12;-1.50;91.70
16980;DHT22;42288;52.182;21.156;2022-11-20T02:04:38;-1.70;91.30
16980;DHT22;42288;52.182;21.156;2022-11-20T02:07:04;-1.60;91.60
16980;DHT22;42288;52.182;21.156;2022-11-20T02:09:30;-1.30;91.50
16980;DHT22;42288;52.182;21.156;2022-11-20T02:11:56;-1.70;90.70
16980;DHT22;42288;52.182;21.156;2022-11-20T02:14:23;-1.70;91.10
16980;DHT22;42288;52.182;21.156;2022-11-20T02:16:49;-1.90;91.50
16980;DHT22;42288;52.182;21.156;2022-11-20T02:19:24;-1.80;91.90
16980;DHT22;42288;52.182;21.156;2022-11-20T02:22:12;-1.80;91.90
16980;DHT22;42288;52.182;21.156;2022-11-20T02:24:39;-2.10;91.70
16980;DHT22;42288;52.182;21.156;2022-11-20T02:27:10;-2.00;92.20
16980;DHT22;42288;52.182;21.156;2022-11-20T02:30:01;-2.20;92.40
16980;DHT22;42288;52.182;21.156;2022-11-20T02:32:35;-2.20;92.60
16980;DHT22;42288;52.182;21.156;2022-11-20T02:35:08;-2.10;92.70
16980;DHT22;42288;52.182;21.156;2022-11-20T02:37:37;-2.30;92.60
16980;DHT22;42288;52.182;21.156;2022-11-20T02:40:04;-2.20;92.90
16980;DHT22;42288;52.182;21.156;2022-11-20T02:42:30;-2.10;93.00
16980;DHT22;42288;52.182;21.156;2022-11-20T02:44:55;-2.50;92.90
16980;DHT22;42288;52.182;21.156;2022-11-20T02:47:21;-2.50;93.30
16980;DHT22;42288;52.182;21.156;2022-11-20T02:49:46;-2.60;93.30
16980;DHT22;42288;52.182;21.156;2022-11-20T02:52:11;-2.70;93.50
16980;DHT22;42288;52.182;21.156;2022-11-20T02:54:37;-2.70;93.70
16980;DHT22;42288;52.182;21.156;2022-11-20T02:57:02;-2.70;93.90
16980;DHT22;42288;52.182;21.156;2022-11-20T02:59:28;-2.70;94.00
16980;DHT22;42288;52.182;21.156;2022-11-20T03:01:53;-2.50;94.10
16980;DHT22;42288;52.182;21.156;2022-11-20T03:04:19;-2.40;93.80
16980;DHT22;42288;52.182;21.156;2022-11-20T03:06:45;-2.40;93.70
16980;DHT22;42288;52.182;21.156;2022-11-20T03:09:10;-2.20;93.60
16980;DHT22;42288;52.182;21.156;2022-11-20T03:11:36;-2.20;93.30
16980;DHT22;42288;52.182;21.156;2022-11-20T03:14:03;-2.30;93.10
16980;DHT22;42288;52.182;21.156;2022-11-20T03:16:30;-2.30;93.30
16980;DHT22;42288;52.182;21.156;2022-11-20T03:18:55;-2.40;93.40
16980;DHT22;42288;52.182;21.156;2022-11-20T03:21:21;-2.30;93.60
16980;DHT22;42288;52.182;21.156;2022-11-20T03:23:47;-2.50;93.40
16980;DHT22;42288;52.182;21.156;2022-11-20T03:26:18;-2.50;93.80
16980;DHT22;42288;52.182;21.156;2022-11-20T03:28:49;-2.30;93.60
16980;DHT22;42288;52.182;21.156;2022-11-20T03:31:16;-2.30;93.60
16980;DHT22;42288;52.182;21.156;2022-11-20T03:33:42;-2.40;93.70
16980;DHT22;42288;52.182;21.156;2022-11-20T03:36:10;-2.40;93.80
16980;DHT22;42288;52.182;21.156;2022-11-20T03:38:36;-2.60;94.00
16980;DHT22;42288;52.182;21.156;2022-11-20T03:41:08;-2.40;94.10
16980;DHT22;42288;52.182;21.156;2022-11-20T03:43:34;-2.30;93.90
16980;DHT22;42288;52.182;21.156;2022-11-20T03:45:59;-2.30;94.00
16980;DHT22;42288;52.182;21.156;2022-11-20T03:48:25;-2.20;93.70
16980;DHT22;42288;52.182;21.156;2022-11-20T03:50:52;-2.10;93.80
16980;DHT22;42288;52.182;21.156;2022-11-20T03:53:18;-2.40;93.30
16980;DHT22;42288;52.182;21.156;2022-11-20T03:55:44;-2.50;93.70
16980;DHT22;42288;52.182;21.156;2022-11-20T03:58:10;-2.70;93.80
16980;DHT22;42288;52.182;21.156;2022-11-20T04:00:35;-2.70;93.80
16980;DHT22;42288;52.182;21.156;2022-11-20T04:03:02;-2.60;93.70
16980;DHT22;42288;52.182;21.156;2022-11-20T04:05:28;-2.60;93.40
16980;DHT22;42288;52.182;21.156;2022-11-20T04:07:54;-2.60;93.50
16980;DHT22;42288;52.182;21.156;2022-11-20T04:10:19;-2.60;93.50
16980;DHT22;42288;52.182;21.156;2022-11-20T04:12:45;-2.60;93.40
16980;DHT22;42288;52.182;21.156;2022-11-20T04:15:11;-2.80;93.50
16980;DHT22;42288;52.182;21.156;2022-11-20T04:17:37;-2.80;93.30
16980;DHT22;42288;52.182;21.156;2022-11-20T04:20:02;-3.00;93.50
16980;DHT22;42288;52.182;21.156;2022-11-20T04:22:28;-2.90;93.70
16980;DHT22;42288;52.182;21.156;2022-11-20T04:24:54;-2.90;93.60
16980;DHT22;42288;52.182;21.156;2022-11-20T04:27:19;-2.90;93.90
16980;DHT22;42288;52.182;21.156;2022-11-20T04:29:45;-2.70;93.80
16980;DHT22;42288;52.182;21.156;2022-11-20T04:32:10;-2.90;93.30
16980;DHT22;42288;52.182;21.156;2022-11-20T04:34:36;-3.10;93.80
16980;DHT22;42288;52.182;21.156;2022-11-20T04:37:01;-3.30;94.00
16980;DHT22;42288;52.182;21.156;2022-11-20T04:39:27;-3.30;94.30
16980;DHT22;42288;52.182;21.156;2022-11-20T04:41:52;-3.30;94.50
16980;DHT22;42288;52.182;21.156;2022-11-20T04:44:37;-3.20;94.30
16980;DHT22;42288;52.182;21.156;2022-11-20T04:47:03;-3.30;94.20
16980;DHT22;42288;52.182;21.156;2022-11-20T04:49:28;-3.10;94.20
16980;DHT22;42288;52.182;21.156;2022-11-20T04:51:54;-3.10;94.00
16980;DHT22;42288;52.182;21.156;2022-11-20T04:54:19;-3.30;94.00
16980;DHT22;42288;52.182;21.156;2022-11-20T04:56:48;-3.00;94.30
16980;DHT22;42288;52.182;21.156;2022-11-20T04:59:13;-2.90;93.80
16980;DHT22;42288;52.182;21.156;2022-11-20T05:01:39;-2.80;93.70
16980;DHT22;42288;52.182;21.156;2022-11-20T05:04:05;-2.90;93.50
16980;DHT22;42288;52.182;21.156;2022-11-20T05:06:31;-3.20;93.20
16980;DHT22;42288;52.182;21.156;2022-11-20T05:08:57;-3.20;93.50
16980;DHT22;42288;52.182;21.156;2022-11-20T05:11:22;-3.50;93.80
16980;DHT22;42288;52.182;21.156;2022-11-20T05:13:48;-3.40;93.90
16980;DHT22;42288;52.182;21.156;2022-11-20T05:16:17;-3.40;93.90
16980;DHT22;42288;52.182;21.156;2022-11-20T05:18:43;-3.30;93.90
16980;DHT22;42288;52.182;21.156;2022-11-20T05:21:10;-3.40;93.80
16980;DHT22;42288;52.182;21.156;2022-11-20T05:23:36;-3.40;93.80
16980;DHT22;42288;52.182;21.156;2022-11-20T05:26:02;-3.30;93.80
16980;DHT22;42288;52.182;21.156;2022-11-20T05:28:29;-3.20;93.90
16980;DHT22;42288;52.182;21.156;2022-11-20T05:30:55;-3.40;93.50
16980;DHT22;42288;52.182;21.156;2022-11-20T05:33:22;-3.50;93.90
16980;DHT22;42288;52.182;21.156;2022-11-20T05:35:48;-3.50;93.80
16980;DHT22;42288;52.182;21.156;2022-11-20T05:38:14;-3.50;94.00
16980;DHT22;42288;52.182;21.156;2022-11-20T05:40:39;-3.60;94.20
16980;DHT22;42288;52.182;21.156;2022-11-20T05:43:04;-3.70;94.20
16980;DHT22;42288;52.182;21.156;2022-11-20T05:45:30;-3.80;94.20
16980;DHT22;42288;52.182;21.156;2022-11-20T05:47:59;-3.90;94.40
16980;DHT22;42288;52.182;21.156;2022-11-20T05:50:26;-3.70;94.50
16980;DHT22;42288;52.182;21.156;2022-11-20T05:52:51;-3.60;94.10
16980;DHT22;42288;52.182;21.156;2022-11-20T05:55:17;-3.60;94.00
16980;DHT22;42288;52.182;21.156;2022-11-20T05:57:42;-3.60;94.00
16980;DHT22;42288;52.182;21.156;2022-11-20T06:00:08;-3.70;93.80
16980;DHT22;42288;52.182;21.156;2022-11-20T06:02:37;-3.70;93.90
16980;DHT22;42288;52.182;21.156;2022-11-20T06:05:02;-3.90;94.50
16980;DHT22;42288;52.182;21.156;2022-11-20T06:07:28;-3.80;94.20
16980;DHT22;42288;52.182;21.156;2022-11-20T06:09:53;-3.70;94.20
16980;DHT22;42288;52.182;21.156;2022-11-20T06:12:19;-3.70;93.90
16980;DHT22;42288;52.182;21.156;2022-11-20T06:14:44;-3.50;94.00
16980;DHT22;42288;52.182;21.156;2022-11-20T06:17:10;-3.40;93.70
16980;DHT22;42288;52.182;21.156;2022-11-20T06:19:35;-3.30;93.80
16980;DHT22;42288;52.182;21.156;2022-11-20T06:22:01;-3.30;93.60
16980;DHT22;42288;52.182;21.156;2022-11-20T06:24:26;-3.30;93.30
16980;DHT22;42288;52.182;21.156;2022-11-20T06:26:52;-3.30;93.20
16980;DHT22;42288;52.182;21.156;2022-11-20T06:29:17;-3.10;93.20
16980;DHT22;42288;52.182;21.156;2022-11-20T06:31:43;-3.10;93.00
16980;DHT22;42288;52.182;21.156;2022-11-20T06:34:08;-2.90;93.20
16980;DHT22;42288;52.182;21.156;2022-11-20T06:36:34;-2.70;93.10
16980;DHT22;42288;52.182;21.156;2022-11-20T06:39:01;-3.00;92.50
16980;DHT22;42288;52.182;21.156;2022-11-20T06:41:27;-2.90;92.60
16980;DHT22;42288;52.182;21.156;2022-11-20T06:43:53;-2.90;92.60
16980;DHT22;42288;52.182;21.156;2022-11-20T06:46:19;-2.70;92.60
16980;DHT22;42288;52.182;21.156;2022-11-20T06:48:46;-2.50;92.70
16980;DHT22;42288;52.182;21.156;2022-11-20T06:51:12;-2.40;92.20
16980;DHT22;42288;52.182;21.156;2022-11-20T06:53:37;-2.40;92.20
16980;DHT22;42288;52.182;21.156;2022-11-20T06:56:03;-2.30;92.30
16980;DHT22;42288;52.182;21.156;2022-11-20T06:58:31;-2.30;91.70
16980;DHT22;42288;52.182;21.156;2022-11-20T07:00:58;-2.20;91.80
16980;DHT22;42288;52.182;21.156;2022-11-20T07:03:24;-2.00;91.90
16980;DHT22;42288;52.182;21.156;2022-11-20T07:05:49;-2.30;91.00
16980;DHT22;42288;52.182;21.156;2022-11-20T07:08:15;-2.70;91.00
16980;DHT22;42288;52.182;21.156;2022-11-20T07:10:40;-2.70;91.90
16980;DHT22;42288;52.182;21.156;2022-11-20T07:13:06;-2.90;91.90
16980;DHT22;42288;52.182;21.156;2022-11-20T07:15:32;-2.70;92.40
16980;DHT22;42288;52.182;21.156;2022-11-20T07:18:01;-2.80;92.40
16980;DHT22;42288;52.182;21.156;2022-11-20T07:20:27;-2.60;92.50
16980;DHT22;42288;52.182;21.156;2022-11-20T07:22:54;-2.50;92.50
16980;DHT22;42288;52.182;21.156;2022-11-20T07:25:20;-2.30;92.50
16980;DHT22;42288;52.182;21.156;2022-11-20T07:27:45;-2.20;92.10
16980;DHT22;42288;52.182;21.156;2022-11-20T07:30:11;-2.40;91.70
16980;DHT22;42288;52.182;21.156;2022-11-20T07:32:37;-2.20;92.20
16980;DHT22;42288;52.182;21.156;2022-11-20T07:35:03;-2.10;92.20
16980;DHT22;42288;52.182;21.156;2022-11-20T07:37:28;-2.10;91.80
16980;DHT22;42288;52.182;21.156;2022-11-20T07:39:54;-2.20;92.00
16980;DHT22;42288;52.182;21.156;2022-11-20T07:42:19;-2.30;92.20
16980;DHT22;42288;52.182;21.156;2022-11-20T07:44:45;-2.30;92.20
16980;DHT22;42288;52.182;21.156;2022-11-20T07:47:10;-2.50;92.20
16980;DHT22;42288;52.182;21.156;2022-11-20T07:49:35;-2.20;92.80
16980;DHT22;42288;52.182;21.156;2022-11-20T07:52:01;-2.40;92.60
16980;DHT22;42288;52.182;21.156;2022-11-20T07:54:26;-2.50;92.80
16980;DHT22;42288;52.182;21.156;2022-11-20T07:56:52;-2.40;93.30
16980;DHT22;42288;52.182;21.156;2022-11-20T07:59:19;-2.20;93.20
16980;DHT22;42288;52.182;21.156;2022-11-20T08:01:44;-2.10;93.00
16980;DHT22;42288;52.182;21.156;2022-11-20T08:04:10;-1.90;92.80
16980;DHT22;42288;52.182;21.156;2022-11-20T08:06:36;-1.90;92.80
16980;DHT22;42288;52.182;21.156;2022-11-20T08:09:02;-1.90;92.70
16980;DHT22;42288;52.182;21.156;2022-11-20T08:11:27;-1.90;92.70
16980;DHT22;42288;52.182;21.156;2022-11-20T08:14:12;-2.10;93.10
16980;DHT22;42288;52.182;21.156;2022-11-20T08:16:45;-2.20;93.80
16980;DHT22;42288;52.182;21.156;2022-11-20T08:19:12;-2.00;94.00
16980;DHT22;42288;52.182;21.156;2022-11-20T08:21:38;-1.90;93.90
16980;DHT22;42288;52.182;21.156;2022-11-20T08:24:04;-1.80;94.10
16980;DHT22;42288;52.182;21.156;2022-11-20T08:26:29;-1.90;93.90
16980;DHT22;42288;52.182;21.156;2022-11-20T08:28:56;-1.70;94.10
16980;DHT22;42288;52.182;21.156;2022-11-20T08:31:23;-1.50;94.10
16980;DHT22;42288;52.182;21.156;2022-11-20T08:33:49;-1.40;94.30
16980;DHT22;42288;52.182;21.156;2022-11-20T08:36:16;-1.40;94.00
16980;DHT22;42288;52.182;21.156;2022-11-20T08:38:42;-1.20;93.90
16980;DHT22;42288;52.182;21.156;2022-11-20T08:41:11;-1.10;93.40
16980;DHT22;42288;52.182;21.156;2022-11-20T08:44:03;-1.10;93.30
16980;DHT22;42288;52.182;21.156;2022-11-20T08:46:40;-1.10;93.20
16980;DHT22;42288;52.182;21.156;2022-11-20T08:49:08;-0.90;93.40
16980;DHT22;42288;52.182;21.156;2022-11-20T08:51:34;-0.60;93.40
16980;DHT22;42288;52.182;21.156;2022-11-20T08:54:00;-0.30;93.40
16980;DHT22;42288;52.182;21.156;2022-11-20T08:56:25;-0.20;93.00
16980;DHT22;42288;52.182;21.156;2022-11-20T08:58:51;0.10;92.60
16980;DHT22;42288;52.182;21.156;2022-11-20T09:01:18;-0.30;92.00
16980;DHT22;42288;52.182;21.156;2022-11-20T09:03:45;-0.30;92.80
16980;DHT22;42288;52.182;21.156;2022-11-20T09:06:10;0.00;92.80
16980;DHT22;42288;52.182;21.156;2022-11-20T09:08:36;0.10;92.50
16980;DHT22;42288;52.182;21.156;2022-11-20T09:11:02;0.40;92.60
16980;DHT22;42288;52.182;21.156;2022-11-20T09:13:28;0.40;92.30
16980;DHT22;42288;52.182;21.156;2022-11-20T09:15:59;0.50;92.60
16980;DHT22;42288;52.182;21.156;2022-11-20T09:18:26;0.80;92.10
16980;DHT22;42288;52.182;21.156;2022-11-20T09:20:56;0.80;91.70
16980;DHT22;42288;52.182;21.156;2022-11-20T09:23:22;0.70;91.60
16980;DHT22;42288;52.182;21.156;2022-11-20T09:25:47;0.80;92.70
16980;DHT22;42288;52.182;21.156;2022-11-20T09:28:13;0.80;92.00
16980;DHT22;42288;52.182;21.156;2022-11-20T09:30:38;0.80;91.90
16980;DHT22;42288;52.182;21.156;2022-11-20T09:33:05;1.00;91.80
16980;DHT22;42288;52.182;21.156;2022-11-20T09:35:31;1.10;91.90
16980;DHT22;42288;52.182;21.156;2022-11-20T09:37:57;1.40;91.00
16980;DHT22;42288;52.182;21.156;2022-11-20T09:40:25;2.00;90.70
16980;DHT22;42288;52.182;21.156;2022-11-20T09:46:20;3.60;88.60
16980;DHT22;42288;52.182;21.156;2022-11-20T09:49:19;3.30;85.60
16980;DHT22;42288;52.182;21.156;2022-11-20T09:52:00;3.90;85.40
16980;DHT22;42288;52.182;21.156;2022-11-20T09:54:30;4.90;84.20
16980;DHT22;42288;52.182;21.156;2022-11-20T09:57:00;4.70;80.20
16980;DHT22;42288;52.182;21.156;2022-11-20T09:59:50;5.20;81.70
16980;DHT22;42288;52.182;21.156;2022-11-20T10:10:43;5.70;81.00
16980;DHT22;42288;52.182;21.156;2022-11-20T10:16:09;8.70;72.40
16980;DHT22;42288;52.182;21.156;2022-11-20T10:18:51;8.90;67.50
16980;DHT22;42288;52.182;21.156;2022-11-20T10:21:25;8.50;64.50
16980;DHT22;42288;52.182;21.156;2022-11-20T10:26:49;9.70;64.20
16980;DHT22;42288;52.182;21.156;2022-11-20T10:29:19;10.10;60.20
16980;DHT22;42288;52.182;21.156;2022-11-20T10:31:57;9.60;61.40
16980;DHT22;42288;52.182;21.156;2022-11-20T10:34:50;9.50;62.50
16980;DHT22;42288;52.182;21.156;2022-11-20T10:37:22;9.00;61.90
16980;DHT22;42288;52.182;21.156;2022-11-20T10:40:02;9.00;64.20
16980;DHT22;42288;52.182;21.156;2022-11-20T10:42:40;6.90;67.00
16980;DHT22;42288;52.182;21.156;2022-11-20T10:45:40;7.20;69.10
16980;DHT22;42288;52.182;21.156;2022-11-20T10:48:22;7.70;70.80
16980;DHT22;42288;52.182;21.156;2022-11-20T10:50:57;9.60;66.50
16980;DHT22;42288;52.182;21.156;2022-11-20T10:56:40;8.50;66.70
16980;DHT22;42288;52.182;21.156;2022-11-20T11:01:51;7.00;68.10
16980;DHT22;42288;52.182;21.156;2022-11-20T11:07:10;5.00;73.30
16980;DHT22;42288;52.182;21.156;2022-11-20T11:09:42;5.00;75.10
16980;DHT22;42288;52.182;21.156;2022-11-20T11:12:09;5.00;76.20
16980;DHT22;42288;52.182;21.156;2022-11-20T11:14:43;5.10;77.30
16980;DHT22;42288;52.182;21.156;2022-11-20T11:17:28;4.60;78.40
16980;DHT22;42288;52.182;21.156;2022-11-20T11:20:17;4.40;78.70
16980;DHT22;42288;52.182;21.156;2022-11-20T11:25:20;3.90;80.50
16980;DHT22;42288;52.182;21.156;2022-11-20T11:27:50;3.60;82.50
16980;DHT22;42288;52.182;21.156;2022-11-20T11:30:18;3.60;83.10
16980;DHT22;42288;52.182;21.156;2022-11-20T11:32:44;3.40;83.10
16980;DHT22;42288;52.182;21.156;2022-11-20T11:35:30;3.30;83.70
16980;DHT22;42288;52.182;21.156;2022-11-20T11:38:05;3.40;85.50
16980;DHT22;42288;52.182;21.156;2022-11-20T11:40:34;3.40;85.10
16980;DHT22;42288;52.182;21.156;2022-11-20T11:43:04;2.90;86.30
16980;DHT22;42288;52.182;21.156;2022-11-20T11:45:30;3.30;86.60
16980;DHT22;42288;52.182;21.156;2022-11-20T11:47:58;2.80;86.10
16980;DHT22;42288;52.182;21.156;2022-11-20T11:50:27;3.20;87.60
16980;DHT22;42288;52.182;21.156;2022-11-20T11:53:09;3.20;87.50
16980;DHT22;42288;52.182;21.156;2022-11-20T12:06:34;3.50;83.80
16980;DHT22;42288;52.182;21.156;2022-11-20T12:09:08;3.00;84.30
16980;DHT22;42288;52.182;21.156;2022-11-20T12:11:37;4.50;85.90
16980;DHT22;42288;52.182;21.156;2022-11-20T12:14:08;5.50;81.10
16980;DHT22;42288;52.182;21.156;2022-11-20T12:16:37;6.00;79.90
16980;DHT22;42288;52.182;21.156;2022-11-20T12:19:11;5.50;79.00
16980;DHT22;42288;52.182;21.156;2022-11-20T12:24:37;6.00;78.80
16980;DHT22;42288;52.182;21.156;2022-11-20T12:27:43;5.80;76.60
16980;DHT22;42288;52.182;21.156;2022-11-20T12:30:18;6.70;74.30
16980;DHT22;42288;52.182;21.156;2022-11-20T12:35:42;7.10;73.80
16980;DHT22;42288;52.182;21.156;2022-11-20T12:43:55;5.70;73.20
16980;DHT22;42288;52.182;21.156;2022-11-20T12:46:47;5.20;76.00
16980;DHT22;42288;52.182;21.156;2022-11-20T12:49:22;5.70;77.10
16980;DHT22;42288;52.182;21.156;2022-11-20T12:52:23;6.20;77.70
16980;DHT22;42288;52.182;21.156;2022-11-20T12:58:04;5.70;77.30
16980;DHT22;42288;52.182;21.156;2022-11-20T13:00:31;5.20;75.20
16980;DHT22;42288;52.182;21.156;2022-11-20T13:08:31;4.60;79.20
16980;DHT22;42288;52.182;21.156;2022-11-20T13:11:20;3.70;81.20
16980;DHT22;42288;52.182;21.156;2022-11-20T13:14:04;3.90;82.60
16980;DHT22;42288;52.182;21.156;2022-11-20T13:17:12;3.90;82.80
16980;DHT22;42288;52.182;21.156;2022-11-20T13:19:40;3.80;82.60
16980;DHT22;42288;52.182;21.156;2022-11-20T13:22:08;3.30;83.40
16980;DHT22;42288;52.182;21.156;2022-11-20T13:24:34;3.50;84.70
16980;DHT22;42288;52.182;21.156;2022-11-20T13:29:42;3.50;84.90
16980;DHT22;42288;52.182;21.156;2022-11-20T13:32:20;3.60;85.00
16980;DHT22;42288;52.182;21.156;2022-11-20T13:34:57;3.60;85.00
16980;DHT22;42288;52.182;21.156;2022-11-20T13:37:32;3.40;85.50
16980;DHT22;42288;52.182;21.156;2022-11-20T13:42:39;3.20;85.80
16980;DHT22;42288;52.182;21.156;2022-11-20T13:45:20;3.10;86.40
16980;DHT22;42288;52.182;21.156;2022-11-20T13:47:51;3.10;86.50
16980;DHT22;42288;52.182;21.156;2022-11-20T13:50:17;3.20;86.80
16980;DHT22;42288;52.182;21.156;2022-11-20T13:52:56;3.40;87.00
16980;DHT22;42288;52.182;21.156;2022-11-20T13:58:44;3.40;86.90
16980;DHT22;42288;52.182;21.156;2022-11-20T14:01:20;3.20;86.60
16980;DHT22;42288;52.182;21.156;2022-11-20T14:03:47;3.20;87.00
16980;DHT22;42288;52.182;21.156;2022-11-20T14:06:28;3.20;86.60
16980;DHT22;42288;52.182;21.156;2022-11-20T14:08:55;3.10;86.90
16980;DHT22;42288;52.182;21.156;2022-11-20T14:11:26;2.80;87.10
16980;DHT22;42288;52.182;21.156;2022-11-20T14:14:24;2.70;88.00
16980;DHT22;42288;52.182;21.156;2022-11-20T14:16:50;2.70;88.80
16980;DHT22;42288;52.182;21.156;2022-11-20T14:19:29;2.60;88.30
16980;DHT22;42288;52.182;21.156;2022-11-20T14:22:19;2.60;88.80
16980;DHT22;42288;52.182;21.156;2022-11-20T14:24:46;2.60;89.00
16980;DHT22;42288;52.182;21.156;2022-11-20T14:27:22;2.70;89.10
16980;DHT22;42288;52.182;21.156;2022-11-20T14:29:49;2.40;88.30
16980;DHT22;42288;52.182;21.156;2022-11-20T14:32:17;2.20;90.20
16980;DHT22;42288;52.182;21.156;2022-11-20T14:34:44;2.10;90.40
16980;DHT22;42288;52.182;21.156;2022-11-20T14:37:13;2.20;90.60
16980;DHT22;42288;52.182;21.156;2022-11-20T14:39:48;2.20;90.30
16980;DHT22;42288;52.182;21.156;2022-11-20T14:42:18;2.00;90.50
16980;DHT22;42288;52.182;21.156;2022-11-20T14:44:44;2.10;90.80
16980;DHT22;42288;52.182;21.156;2022-11-20T14:47:12;1.90;90.70
16980;DHT22;42288;52.182;21.156;2022-11-20T14:49:38;1.60;91.40
16980;DHT22;42288;52.182;21.156;2022-11-20T14:52:31;1.60;91.50
16980;DHT22;42288;52.182;21.156;2022-11-20T14:54:58;1.40;92.20
16980;DHT22;42288;52.182;21.156;2022-11-20T15:02:46;1.30;92.40
16980;DHT22;42288;52.182;21.156;2022-11-20T15:05:13;1.20;93.10
16980;DHT22;42288;52.182;21.156;2022-11-20T15:07:40;1.20;93.30
16980;DHT22;42288;52.182;21.156;2022-11-20T15:10:13;1.30;93.20
16980;DHT22;42288;52.182;21.156;2022-11-20T15:12:52;1.30;92.90
16980;DHT22;42288;52.182;21.156;2022-11-20T15:15:47;1.20;93.10
16980;DHT22;42288;52.182;21.156;2022-11-20T15:18:15;1.00;93.10
16980;DHT22;42288;52.182;21.156;2022-11-20T15:20:41;0.90;93.60
16980;DHT22;42288;52.182;21.156;2022-11-20T15:23:18;0.90;93.50
16980;DHT22;42288;52.182;21.156;2022-11-20T15:25:45;1.10;93.50
16980;DHT22;42288;52.182;21.156;2022-11-20T15:28:29;1.20;93.50
16980;DHT22;42288;52.182;21.156;2022-11-20T15:30:55;1.40;93.20
16980;DHT22;42288;52.182;21.156;2022-11-20T15:33:21;1.20;92.90
16980;DHT22;42288;52.182;21.156;2022-11-20T15:35:47;1.30;93.10
16980;DHT22;42288;52.182;21.156;2022-11-20T15:38:12;1.20;93.10
16980;DHT22;42288;52.182;21.156;2022-11-20T15:40:38;1.10;93.50
16980;DHT22;42288;52.182;21.156;2022-11-20T15:43:04;1.10;93.30
16980;DHT22;42288;52.182;21.156;2022-11-20T15:45:41;1.10;93.50
16980;DHT22;42288;52.182;21.156;2022-11-20T15:48:14;1.30;93.50
16980;DHT22;42288;52.182;21.156;2022-11-20T15:50:52;1.20;93.00
16980;DHT22;42288;52.182;21.156;2022-11-20T15:53:19;1.10;93.00
16980;DHT22;42288;52.182;21.156;2022-11-20T15:55:45;1.30;93.20
16980;DHT22;42288;52.182;21.156;2022-11-20T15:58:10;1.20;93.20
16980;DHT22;42288;52.182;21.156;2022-11-20T16:00:36;1.20;93.60
16980;DHT22;42288;52.182;21.156;2022-11-20T16:03:01;1.20;93.30
16980;DHT22;42288;52.182;21.156;2022-11-20T16:05:30;1.10;93.10
16980;DHT22;42288;52.182;21.156;2022-11-20T16:07:56;1.00;93.30
16980;DHT22;42288;52.182;21.156;2022-11-20T16:10:22;1.00;93.40
16980;DHT22;42288;52.182;21.156;2022-11-20T16:12:48;0.80;93.40
16980;DHT22;42288;52.182;21.156;2022-11-20T16:15:32;0.80;93.80
16980;DHT22;42288;52.182;21.156;2022-11-20T16:18:18;0.80;93.80
16980;DHT22;42288;52.182;21.156;2022-11-20T16:20:46;0.80;94.00
16980;DHT22;42288;52.182;21.156;2022-11-20T16:23:12;0.90;94.00
16980;DHT22;42288;52.182;21.156;2022-11-20T16:25:38;1.00;93.90
16980;DHT22;42288;52.182;21.156;2022-11-20T16:28:04;1.10;93.50
16980;DHT22;42288;52.182;21.156;2022-11-20T16:30:31;1.30;93.70
16980;DHT22;42288;52.182;21.156;2022-11-20T16:32:57;1.30;93.10
16980;DHT22;42288;52.182;21.156;2022-11-20T16:35:23;1.20;92.80
16980;DHT22;42288;52.182;21.156;2022-11-20T16:37:50;1.20;93.10
16980;DHT22;42288;52.182;21.156;2022-11-20T16:40:15;1.30;93.40
16980;DHT22;42288;52.182;21.156;2022-11-20T16:42:41;1.40;93.10
16980;DHT22;42288;52.182;21.156;2022-11-20T16:45:07;1.40;93.10
16980;DHT22;42288;52.182;21.156;2022-11-20T16:47:33;1.40;93.00
16980;DHT22;42288;52.182;21.156;2022-11-20T16:49:59;1.40;93.00